Time;durP1;ratioP1;P1;durP2;ratioP2;P2;SDS_P1;SDS_P2;PMS_P1;PMS_P2;Temp;Humidity;BMP_temperature;BMP_pressure;BME280_temperature;BME280_humidity;BME280_pressure;Samples;Min_cycle;Max_cycle;Signal;HPM_P1;HPM_P2
2022/06/18 00:00:23;;;;;;;5.50;3.30;;;17.50;99.90;;;;;;5050080;28;20044;-52
2022/06/18 00:02:48;;;;;;;3.75;3.45;;;17.50;99.90;;;;;;5050060;28;20021;-51
2022/06/18 00:05:16;;;;;;;3.70;3.40;;;17.50;99.90;;;;;;5050073;28;20380;-52
2022/06/18 00:07:54;;;;;;;3.67;3.22;;;17.40;99.90;;;;;;5050285;28;20029;-49
2022/06/18 00:10:29;;;;;;;3.55;3.25;;;17.40;99.90;;;;;;5038396;28;20231;-50
2022/06/18 00:15:41;;;;;;;4.30;3.17;;;17.40;99.90;;;;;;5050475;28;20082;-53
2022/06/18 00:18:12;;;;;;;5.68;3.00;;;17.30;99.90;;;;;;5049973;28;20021;-53
2022/06/18 00:20:39;;;;;;;3.38;3.08;;;17.30;99.90;;;;;;5049426;28;20479;-50
2022/06/18 00:23:14;;;;;;;3.83;3.42;;;17.30;99.90;;;;;;5048115;28;20032;-49
2022/06/18 00:25:41;;;;;;;3.47;3.20;;;17.20;99.90;;;;;;5049923;28;20044;-50
2022/06/18 00:28:15;;;;;;;4.40;3.42;;;17.20;99.90;;;;;;5048003;28;20013;-52
2022/06/18 00:30:41;;;;;;;3.63;2.97;;;17.20;99.90;;;;;;5049761;28;20457;-49
2022/06/18 00:33:07;;;;;;;3.85;3.20;;;17.20;99.90;;;;;;5047689;28;20103;-50
2022/06/18 00:35:34;;;;;;;3.70;3.40;;;17.20;99.90;;;;;;5045381;28;20041;-51
2022/06/18 00:38:02;;;;;;;5.00;3.28;;;17.10;99.90;;;;;;5036796;28;20151;-50
2022/06/18 00:40:46;;;;;;;5.38;3.28;;;17.20;99.90;;;;;;5045918;28;20036;-51
2022/06/18 00:43:34;;;;;;;4.00;3.15;;;17.10;99.90;;;;;;5048633;28;20436;-48
2022/06/18 00:46:12;;;;;;;3.47;3.17;;;17.10;99.90;;;;;;5048290;28;20018;-48
2022/06/18 00:48:45;;;;;;;3.83;3.22;;;17.10;99.90;;;;;;5049785;28;20025;-51
2022/06/18 00:51:25;;;;;;;4.22;3.55;;;17.00;99.90;;;;;;5049511;28;20506;-51
2022/06/18 00:54:00;;;;;;;3.30;2.95;;;17.00;99.90;;;;;;5044285;28;20541;-47
2022/06/18 00:56:38;;;;;;;5.00;3.30;;;17.00;99.90;;;;;;5036068;28;20028;-50
2022/06/18 00:59:13;;;;;;;3.60;2.90;;;17.00;99.90;;;;;;5045891;28;20996;-48
2022/06/18 01:01:45;;;;;;;3.80;3.50;;;17.00;99.90;;;;;;5046917;28;20028;-48
2022/06/18 01:04:32;;;;;;;4.03;3.70;;;17.00;99.90;;;;;;5047468;28;20025;-53
2022/06/18 01:07:15;;;;;;;6.75;3.33;;;17.00;99.90;;;;;;5049652;28;20396;-48
2022/06/18 01:09:43;;;;;;;3.15;2.95;;;17.00;99.90;;;;;;5045729;28;20049;-50
2022/06/18 01:12:10;;;;;;;4.95;2.83;;;16.90;99.90;;;;;;5046819;28;20029;-51
2022/06/18 01:14:38;;;;;;;3.03;2.83;;;16.90;99.90;;;;;;5049192;28;20028;-48
2022/06/18 01:17:06;;;;;;;3.92;3.20;;;16.90;99.90;;;;;;5049233;28;20021;-49
2022/06/18 01:19:40;;;;;;;4.50;3.33;;;16.80;99.90;;;;;;5048974;28;20143;-48
2022/06/18 01:22:43;;;;;;;3.55;3.28;;;16.80;99.90;;;;;;5048490;28;20044;-53
2022/06/18 01:25:09;;;;;;;3.45;3.15;;;16.80;99.90;;;;;;5048032;28;20024;-48
2022/06/18 01:27:36;;;;;;;3.60;3.30;;;16.70;99.90;;;;;;5049093;28;20059;-49
2022/06/18 01:30:10;;;;;;;3.60;3.20;;;16.70;99.90;;;;;;5049095;28;20029;-49
2022/06/18 01:32:37;;;;;;;3.97;3.25;;;16.60;99.90;;;;;;5039228;28;20099;-48
2022/06/18 01:35:05;;;;;;;5.90;3.20;;;16.60;99.90;;;;;;5045725;28;20021;-47
2022/06/18 01:37:31;;;;;;;3.80;3.40;;;16.60;99.90;;;;;;5042027;28;20523;-48
2022/06/18 01:39:57;;;;;;;3.42;3.13;;;16.60;99.90;;;;;;5040655;28;20025;-51
2022/06/18 01:42:27;;;;;;;3.42;3.13;;;16.50;99.90;;;;;;5040366;28;20495;-49
2022/06/18 01:45:00;;;;;;;6.88;3.50;;;16.50;99.90;;;;;;5045421;28;20037;-49
2022/06/18 01:47:50;;;;;;;7.10;3.20;;;16.50;99.90;;;;;;5042374;28;20028;-51
2022/06/18 01:50:29;;;;;;;3.17;2.97;;;16.40;99.90;;;;;;5034310;28;20333;-48
2022/06/18 01:53:08;;;;;;;3.42;3.13;;;16.40;99.90;;;;;;5039800;28;20033;-48
2022/06/18 01:55:43;;;;;;;3.22;3.03;;;16.40;99.90;;;;;;5048851;28;20025;-47
2022/06/18 01:58:21;;;;;;;4.25;3.65;;;16.30;99.90;;;;;;5045100;28;20451;-48
2022/06/18 02:00:52;;;;;;;3.53;3.22;;;16.30;99.90;;;;;;5048717;28;20055;-49
2022/06/18 02:03:17;;;;;;;3.55;3.25;;;16.30;99.90;;;;;;5031140;28;20025;-49
2022/06/18 02:05:44;;;;;;;3.47;3.17;;;16.30;99.90;;;;;;5050723;28;20045;-49
2022/06/18 02:08:12;;;;;;;3.13;2.83;;;16.30;99.90;;;;;;5047392;28;20032;-52
2022/06/18 02:10:50;;;;;;;3.90;3.25;;;16.20;99.90;;;;;;5045538;28;20116;-49
2022/06/18 02:13:17;;;;;;;3.40;3.10;;;16.20;99.90;;;;;;5032661;28;20025;-49
2022/06/18 02:15:45;;;;;;;3.47;3.17;;;16.20;99.90;;;;;;5046180;28;20131;-48
2022/06/18 02:18:14;;;;;;;3.53;3.22;;;16.20;99.90;;;;;;5048929;28;20028;-51
2022/06/18 02:20:45;;;;;;;3.40;3.20;;;16.20;99.90;;;;;;5046778;28;20466;-49
2022/06/18 02:23:11;;;;;;;3.20;3.00;;;16.10;99.90;;;;;;5042228;28;20013;-49
2022/06/18 02:25:37;;;;;;;4.10;3.70;;;16.10;99.90;;;;;;5047774;28;20127;-48
2022/06/18 02:28:24;;;;;;;3.35;3.05;;;16.10;99.90;;;;;;5043415;28;20021;-50
2022/06/18 02:30:52;;;;;;;3.65;3.35;;;16.10;99.90;;;;;;5048394;28;20483;-48
2022/06/18 02:33:39;;;;;;;3.28;2.97;;;16.10;99.90;;;;;;5044853;28;20036;-50
2022/06/18 02:36:18;;;;;;;4.22;3.00;;;16.00;99.90;;;;;;5049258;28;20483;-50
2022/06/18 02:38:46;;;;;;;4.65;3.00;;;16.00;99.90;;;;;;5036952;28;20029;-48
2022/06/18 02:41:12;;;;;;;3.33;2.92;;;16.00;99.90;;;;;;5049743;28;20021;-49
2022/06/18 02:43:43;;;;;;;3.60;3.30;;;16.00;99.90;;;;;;5044005;28;20029;-49
2022/06/18 02:46:10;;;;;;;3.30;3.10;;;16.00;99.90;;;;;;5049754;28;20021;-49
2022/06/18 02:48:37;;;;;;;4.30;3.90;;;16.00;99.90;;;;;;5045899;28;20379;-48
2022/06/18 02:51:04;;;;;;;3.67;3.38;;;15.90;99.90;;;;;;5041310;28;20021;-48
2022/06/18 02:53:32;;;;;;;5.00;3.60;;;15.90;99.90;;;;;;5047918;28;20100;-51
2022/06/18 02:56:01;;;;;;;3.80;3.20;;;15.90;99.90;;;;;;5042884;28;20490;-49
2022/06/18 02:58:36;;;;;;;3.28;2.97;;;15.90;99.90;;;;;;5050515;28;20029;-51
2022/06/18 03:01:09;;;;;;;3.38;3.08;;;15.90;99.90;;;;;;5044268;28;20381;-50
2022/06/18 03:03:41;;;;;;;3.58;3.28;;;15.80;99.90;;;;;;5050558;28;20032;-49
2022/06/18 03:06:08;;;;;;;3.25;2.92;;;15.80;99.90;;;;;;5045260;28;20424;-50
2022/06/18 03:08:34;;;;;;;3.47;3.17;;;15.80;99.90;;;;;;5044065;28;20029;-50
2022/06/18 03:13:45;;;;;;;3.42;3.10;;;15.80;99.90;;;;;;5044624;28;20399;-51
2022/06/18 03:16:14;;;;;;;3.67;3.30;;;15.80;99.90;;;;;;5047721;28;20013;-52
2022/06/18 03:18:42;;;;;;;4.95;3.17;;;15.80;99.90;;;;;;5045580;28;20025;-49
2022/06/18 03:21:15;;;;;;;3.67;3.08;;;15.70;99.90;;;;;;5038820;28;20017;-48
2022/06/18 03:23:41;;;;;;;3.22;2.92;;;15.70;99.90;;;;;;5046042;28;20424;-52
2022/06/18 03:26:07;;;;;;;4.03;2.90;;;15.70;99.90;;;;;;5042062;28;20022;-49
2022/06/18 03:28:33;;;;;;;7.07;3.58;;;15.70;99.90;;;;;;5046207;28;20380;-50
2022/06/18 03:30:58;;;;;;;4.30;3.83;;;15.70;99.90;;;;;;5043478;28;20036;-48
2022/06/18 03:33:24;;;;;;;4.60;3.50;;;15.70;99.90;;;;;;5047292;28;20518;-53
2022/06/18 03:35:51;;;;;;;4.07;3.67;;;15.70;99.90;;;;;;5043797;28;20025;-52
2022/06/18 03:38:17;;;;;;;4.75;3.40;;;15.70;99.90;;;;;;5040617;28;20086;-48
2022/06/18 03:40:44;;;;;;;3.72;3.22;;;15.70;99.90;;;;;;5045944;28;20036;-48
2022/06/18 03:43:10;;;;;;;3.47;3.17;;;15.70;99.90;;;;;;5046282;28;20399;-50
2022/06/18 03:45:40;;;;;;;3.55;3.08;;;15.70;99.90;;;;;;5045590;28;20029;-49
2022/06/18 03:48:07;;;;;;;3.50;3.20;;;15.70;99.90;;;;;;5046759;28;20053;-48
2022/06/18 03:50:33;;;;;;;4.03;3.42;;;15.70;99.90;;;;;;5040252;28;20049;-48
2022/06/18 03:52:59;;;;;;;3.47;3.17;;;15.70;99.90;;;;;;5046604;28;20036;-49
2022/06/18 03:55:25;;;;;;;4.40;3.08;;;15.70;99.90;;;;;;5042666;28;20021;-52
2022/06/18 03:57:51;;;;;;;3.80;3.50;;;15.70;99.90;;;;;;5044232;28;20032;-50
2022/06/18 04:00:21;;;;;;;3.25;2.80;;;15.80;99.90;;;;;;5043358;28;20025;-50
2022/06/18 04:02:47;;;;;;;3.70;3.30;;;15.80;99.90;;;;;;5044422;28;20041;-51
2022/06/18 04:05:13;;;;;;;3.28;3.08;;;15.80;99.90;;;;;;5046940;28;20071;-51
2022/06/18 04:07:41;;;;;;;4.75;3.05;;;15.80;99.90;;;;;;5039351;28;20071;-53
2022/06/18 04:10:06;;;;;;;3.63;3.30;;;15.90;99.90;;;;;;5047422;28;20108;-51
2022/06/18 04:12:33;;;;;;;3.38;3.08;;;15.90;99.90;;;;;;5041192;28;20649;-51
2022/06/18 04:14:59;;;;;;;3.28;2.90;;;15.90;99.90;;;;;;5047168;28;20134;-50
2022/06/18 04:17:24;;;;;;;4.85;3.20;;;16.00;99.90;;;;;;5043322;28;20459;-49
2022/06/18 04:19:50;;;;;;;3.63;3.33;;;16.10;99.90;;;;;;5038509;28;20075;-51
2022/06/18 04:22:16;;;;;;;3.22;2.92;;;16.10;99.90;;;;;;5046458;28;20463;-50
2022/06/18 04:24:42;;;;;;;4.38;3.45;;;16.10;99.90;;;;;;5039077;28;20029;-53
2022/06/18 04:27:07;;;;;;;2.88;2.58;;;16.20;99.90;;;;;;5047329;28;20021;-50
2022/06/18 04:29:34;;;;;;;4.00;2.95;;;16.20;99.90;;;;;;5070053;22;20114;-49
2022/06/18 04:32:00;;;;;;;3.40;3.10;;;16.30;99.90;;;;;;5064862;28;20032;-51
2022/06/18 04:34:26;;;;;;;3.47;3.17;;;16.30;99.90;;;;;;5057909;28;20028;-50
2022/06/18 04:36:54;;;;;;;3.58;3.13;;;16.40;99.90;;;;;;5058369;28;20050;-46
2022/06/18 04:39:20;;;;;;;3.53;2.83;;;16.40;99.90;;;;;;5062721;28;20040;-49
2022/06/18 04:41:47;;;;;;;3.40;2.97;;;16.50;99.90;;;;;;5057504;28;20021;-45
2022/06/18 04:44:13;;;;;;;4.97;3.05;;;16.60;99.90;;;;;;5061016;28;20016;-49
2022/06/18 04:46:39;;;;;;;3.80;3.45;;;16.60;99.90;;;;;;5062570;28;20090;-50
2022/06/18 04:49:05;;;;;;;5.35;3.50;;;16.70;99.90;;;;;;5059812;28;20025;-49
2022/06/18 04:51:30;;;;;;;3.38;2.83;;;16.80;99.90;;;;;;5060973;28;20115;-46
2022/06/18 04:53:56;;;;;;;3.25;2.38;;;16.90;99.90;;;;;;5059163;28;20031;-46
2022/06/18 04:56:22;;;;;;;3.50;2.88;;;16.90;99.90;;;;;;5061075;28;20059;-51
2022/06/18 04:58:47;;;;;;;2.90;2.40;;;17.00;99.90;;;;;;5060113;28;20033;-46
2022/06/18 05:01:16;;;;;;;4.05;3.20;;;17.10;99.90;;;;;;5061051;28;20017;-49
2022/06/18 05:03:41;;;;;;;4.28;2.50;;;17.20;99.90;;;;;;5062016;28;20100;-45
2022/06/18 05:06:07;;;;;;;3.85;2.45;;;17.40;99.90;;;;;;5060686;28;20100;-45
2022/06/18 05:08:32;;;;;;;2.80;2.60;;;17.50;99.90;;;;;;5061375;28;20683;-48
2022/06/18 05:10:58;;;;;;;3.42;2.55;;;17.60;99.90;;;;;;5059524;28;20048;-44
2022/06/18 05:13:23;;;;;;;2.95;2.30;;;17.70;99.90;;;;;;5060768;28;20036;-47
2022/06/18 05:15:52;;;;;;;2.47;2.28;;;17.90;99.90;;;;;;5059986;28;20017;-47
2022/06/18 05:18:20;;;;;;;2.47;2.28;;;18.00;99.90;;;;;;5061026;28;20027;-45
2022/06/18 05:20:51;;;;;;;2.90;2.70;;;18.10;99.90;;;;;;5058125;28;20035;-46
2022/06/18 05:23:17;;;;;;;4.13;2.50;;;18.20;99.90;;;;;;5048358;28;20016;-45
2022/06/18 05:25:43;;;;;;;3.20;2.83;;;18.40;99.90;;;;;;5060242;28;20036;-47
2022/06/18 05:28:11;;;;;;;3.10;2.50;;;18.50;99.90;;;;;;5061997;28;20025;-46
2022/06/18 05:30:36;;;;;;;4.18;2.80;;;18.60;99.90;;;;;;5065008;28;20036;-48
2022/06/18 05:33:03;;;;;;;5.82;2.83;;;18.70;99.90;;;;;;5063662;28;20033;-45
2022/06/18 05:35:30;;;;;;;3.47;2.80;;;18.90;99.90;;;;;;5063557;28;20034;-46
2022/06/18 05:37:55;;;;;;;3.55;2.83;;;19.00;99.90;;;;;;5062282;28;20451;-45
2022/06/18 05:40:21;;;;;;;3.53;3.20;;;19.20;99.90;;;;;;5064767;28;20032;-45
2022/06/18 05:42:47;;;;;;;3.45;2.33;;;19.30;99.90;;;;;;5064708;28;20371;-45
2022/06/18 05:45:13;;;;;;;6.13;2.60;;;19.40;99.90;;;;;;5064826;28;20019;-47
2022/06/18 05:47:39;;;;;;;2.75;2.50;;;19.50;99.90;;;;;;5064907;28;20017;-44
2022/06/18 05:50:07;;;;;;;6.70;3.45;;;19.70;99.90;;;;;;5061931;28;20430;-44
2022/06/18 05:52:33;;;;;;;3.85;3.05;;;19.80;99.90;;;;;;5065248;28;20043;-46
2022/06/18 05:54:59;;;;;;;3.33;2.95;;;19.90;99.90;;;;;;5063012;28;20029;-46
2022/06/18 05:57:25;;;;;;;3.30;3.00;;;20.10;99.90;;;;;;5064780;28;20128;-45
2022/06/18 05:59:51;;;;;;;3.15;2.88;;;20.20;99.90;;;;;;5063963;28;20490;-45
2022/06/18 06:02:19;;;;;;;2.88;2.67;;;20.40;99.90;;;;;;5064415;28;20035;-44
2022/06/18 06:04:46;;;;;;;3.95;2.50;;;20.50;99.90;;;;;;5064064;28;20438;-46
2022/06/18 06:07:25;;;;;;;3.45;3.05;;;20.60;99.90;;;;;;5060995;28;20032;-46
2022/06/18 06:12:37;;;;;;;3.70;3.40;;;21.00;99.90;;;;;;5060741;28;20028;-45
2022/06/18 06:15:04;;;;;;;5.20;3.22;;;21.10;99.90;;;;;;5068084;28;20107;-46
2022/06/18 06:17:29;;;;;;;4.65;3.75;;;21.20;99.90;;;;;;5060545;28;20021;-48
2022/06/18 06:20:08;;;;;;;4.85;3.40;;;21.40;99.90;;;;;;5061454;28;20032;-45
2022/06/18 06:22:35;;;;;;;4.22;3.65;;;21.50;99.90;;;;;;5063635;28;20029;-45
2022/06/18 06:25:01;;;;;;;4.72;4.05;;;21.60;99.90;;;;;;5062218;28;20383;-47
2022/06/18 06:27:26;;;;;;;3.92;3.42;;;21.70;99.90;;;;;;5065100;28;20024;-45
2022/06/18 06:29:52;;;;;;;4.88;4.43;;;21.80;99.90;;;;;;5060260;28;20037;-46
2022/06/18 06:32:17;;;;;;;5.53;4.25;;;22.00;99.90;;;;;;5066397;28;20017;-50
2022/06/18 06:34:43;;;;;;;5.72;4.05;;;22.10;99.90;;;;;;5060420;28;20052;-45
2022/06/18 06:37:10;;;;;;;5.50;4.07;;;22.20;99.90;;;;;;5058739;28;20058;-48
2022/06/18 06:39:36;;;;;;;6.90;4.65;;;22.30;99.90;;;;;;5058838;28;20028;-50
2022/06/18 06:42:02;;;;;;;4.25;3.60;;;22.50;99.90;;;;;;5055928;28;20024;-52
2022/06/18 06:44:27;;;;;;;6.60;3.88;;;22.60;99.90;;;;;;5062392;28;20567;-51
2022/06/18 06:46:53;;;;;;;5.43;3.85;;;22.70;99.90;;;;;;5060744;28;20017;-52
2022/06/18 06:49:19;;;;;;;5.20;3.83;;;22.90;99.90;;;;;;5066093;28;20481;-49
2022/06/18 06:51:44;;;;;;;5.55;4.00;;;23.00;99.90;;;;;;5060014;28;20108;-47
2022/06/18 06:54:10;;;;;;;6.82;4.57;;;23.10;99.90;;;;;;5062979;28;20056;-46
2022/06/18 06:59:20;;;;;;;5.85;3.95;;;23.50;99.90;;;;;;5057700;28;20086;-48
2022/06/18 07:01:46;;;;;;;4.63;4.18;;;23.60;99.90;;;;;;5058356;28;20020;-51
2022/06/18 07:04:12;;;;;;;5.78;4.55;;;23.70;99.90;;;;;;5063007;28;20078;-48
2022/06/18 07:06:38;;;;;;;6.10;5.22;;;23.80;99.90;;;;;;5064908;28;20388;-49
2022/06/18 07:09:05;;;;;;;5.22;4.75;;;24.00;99.70;;;;;;5061673;28;20433;-52
2022/06/18 07:11:31;;;;;;;6.07;4.90;;;24.00;99.80;;;;;;5062711;28;20448;-49
2022/06/18 07:13:57;;;;;;;5.40;4.90;;;24.10;99.90;;;;;;5059887;28;20056;-51
2022/06/18 07:16:23;;;;;;;4.72;4.35;;;24.10;99.80;;;;;;5062629;28;20056;-51
2022/06/18 07:18:50;;;;;;;5.70;5.15;;;24.30;99.90;;;;;;5062258;28;20104;-49
2022/06/18 07:21:16;;;;;;;4.15;3.47;;;24.50;99.90;;;;;;5047578;28;20092;-49
2022/06/18 07:23:42;;;;;;;5.53;4.95;;;24.70;99.90;;;;;;5059998;28;20048;-51
2022/06/18 07:26:10;;;;;;;9.00;5.00;;;24.80;98.80;;;;;;5061961;28;20099;-48
2022/06/18 07:28:35;;;;;;;5.53;4.40;;;24.90;99.80;;;;;;5062411;28;20029;-49
2022/06/18 07:31:01;;;;;;;5.40;4.40;;;25.10;99.10;;;;;;5061449;28;20364;-47
2022/06/18 07:33:28;;;;;;;7.05;4.25;;;25.20;99.10;;;;;;5062583;28;20125;-47
2022/06/18 07:35:54;;;;;;;7.15;4.95;;;25.40;99.80;;;;;;5062188;28;20021;-52
2022/06/18 07:38:20;;;;;;;9.13;4.72;;;25.60;97.90;;;;;;5062259;28;20044;-48
2022/06/18 07:40:53;;;;;;;6.25;5.18;;;25.60;97.50;;;;;;5060346;28;20133;-45
2022/06/18 07:43:30;;;;;;;5.97;4.40;;;25.70;97.00;;;;;;5050377;28;20047;-46
2022/06/18 07:45:56;;;;;;;5.00;4.50;;;25.70;97.70;;;;;;5061873;28;20024;-50
2022/06/18 07:48:21;;;;;;;5.85;4.25;;;25.90;98.00;;;;;;5062338;28;20368;-48
2022/06/18 07:50:47;;;;;;;7.72;4.47;;;26.10;97.70;;;;;;5062378;28;20029;-47
2022/06/18 07:53:24;;;;;;;6.90;4.65;;;26.10;97.00;;;;;;5059755;28;20024;-50
2022/06/18 07:55:50;;;;;;;5.75;3.95;;;26.20;96.20;;;;;;5060762;28;20025;-47
2022/06/18 07:58:16;;;;;;;6.80;5.38;;;26.20;96.20;;;;;;5061314;28;20033;-46
2022/06/18 08:00:42;;;;;;;8.35;5.15;;;26.40;96.00;;;;;;5061996;28;20055;-53
2022/06/18 08:03:09;;;;;;;5.78;4.38;;;26.50;95.90;;;;;;5060047;28;20629;-49
2022/06/18 08:05:35;;;;;;;6.20;4.90;;;26.70;96.00;;;;;;5061797;28;20017;-46
2022/06/18 08:08:02;;;;;;;6.88;5.55;;;26.80;95.60;;;;;;5061147;28;20031;-47
2022/06/18 08:10:27;;;;;;;6.93;4.55;;;26.80;95.30;;;;;;5062316;28;20055;-48
2022/06/18 08:12:53;;;;;;;6.47;4.63;;;26.80;96.30;;;;;;5061034;28;20491;-47
2022/06/18 08:15:19;;;;;;;6.13;4.50;;;26.90;95.60;;;;;;5060484;28;20089;-50
2022/06/18 08:17:45;;;;;;;5.50;4.65;;;27.00;95.40;;;;;;5061916;28;20036;-45
2022/06/18 08:20:11;;;;;;;5.57;4.90;;;26.90;95.10;;;;;;5061188;28;20029;-47
2022/06/18 08:22:39;;;;;;;6.47;5.38;;;27.00;94.60;;;;;;5061171;28;20249;-48
2022/06/18 08:25:06;;;;;;;5.03;4.53;;;27.10;94.40;;;;;;5059164;28;20509;-48
2022/06/18 08:27:32;;;;;;;8.30;5.45;;;27.20;94.80;;;;;;5062077;28;20020;-47
2022/06/18 08:29:58;;;;;;;10.20;4.40;;;27.00;95.00;;;;;;5058703;28;20123;-48
2022/06/18 08:32:23;;;;;;;6.65;5.20;;;27.00;95.40;;;;;;5061338;28;20108;-52
2022/06/18 08:34:49;;;;;;;11.35;5.60;;;27.00;95.00;;;;;;5061241;28;20021;-50
2022/06/18 08:37:15;;;;;;;8.18;5.28;;;27.10;94.60;;;;;;5061588;28;20033;-46
2022/06/18 08:39:40;;;;;;;10.13;5.50;;;27.20;95.00;;;;;;5061339;28;20490;-46
2022/06/18 08:42:14;;;;;;;5.60;5.10;;;27.20;95.10;;;;;;5058772;28;20036;-49
2022/06/18 08:44:46;;;;;;;6.55;4.28;;;27.20;94.40;;;;;;5058574;28;20037;-47
2022/06/18 08:47:33;;;;;;;10.13;5.90;;;27.40;94.40;;;;;;5066157;28;20025;-46
2022/06/18 08:50:20;;;;;;;5.25;4.47;;;27.40;93.90;;;;;;5056883;28;20024;-47
2022/06/18 08:53:17;;;;;;;7.57;4.90;;;27.50;94.70;;;;;;5059116;28;20028;-50
2022/06/18 08:56:16;;;;;;;7.22;5.63;;;27.50;94.50;;;;;;5056685;28;20107;-49
2022/06/18 08:59:13;;;;;;;13.75;6.05;;;27.50;93.80;;;;;;5059784;28;20024;-51
2022/06/18 09:01:44;;;;;;;7.07;5.65;;;27.50;94.60;;;;;;5055999;28;20025;-52
2022/06/18 09:04:15;;;;;;;7.30;4.82;;;27.30;94.30;;;;;;5065414;28;20053;-51
2022/06/18 09:07:18;;;;;;;6.28;5.68;;;27.40;95.70;;;;;;5057544;28;20115;-54
2022/06/18 09:09:56;;;;;;;9.57;5.72;;;27.50;93.20;;;;;;5051908;28;20032;-50
2022/06/18 09:12:46;;;;;;;10.02;5.18;;;27.30;94.10;;;;;;5050475;28;20360;-47
2022/06/18 09:15:25;;;;;;;7.63;5.63;;;27.20;94.50;;;;;;5059305;28;20061;-46
2022/06/18 09:18:04;;;;;;;7.70;4.88;;;27.10;93.50;;;;;;5061117;28;20020;-46
2022/06/18 09:20:35;;;;;;;8.15;4.25;;;27.20;94.10;;;;;;5062662;28;20429;-46
2022/06/18 09:23:09;;;;;;;7.95;4.13;;;27.00;92.40;;;;;;5058840;28;20027;-49
2022/06/18 09:25:41;;;;;;;8.70;4.20;;;27.00;92.20;;;;;;5057332;28;20083;-49
2022/06/18 09:28:12;;;;;;;7.18;5.07;;;27.00;92.70;;;;;;5063600;28;20017;-47
2022/06/18 09:30:50;;;;;;;7.82;4.80;;;26.90;93.00;;;;;;5057474;28;20086;-47
2022/06/18 09:33:18;;;;;;;5.57;3.70;;;26.90;93.30;;;;;;5050312;28;20418;-48
2022/06/18 09:35:51;;;;;;;5.30;4.60;;;26.90;92.30;;;;;;5057334;28;20025;-47
2022/06/18 09:38:38;;;;;;;9.38;5.15;;;26.90;93.50;;;;;;5049925;28;20024;-48
2022/06/18 09:41:15;;;;;;;8.35;4.53;;;27.00;94.30;;;;;;5057955;28;20082;-46
2022/06/18 09:44:09;;;;;;;11.43;4.82;;;27.00;94.80;;;;;;5060455;28;20669;-46
2022/06/18 09:46:39;;;;;;;8.63;5.88;;;27.10;94.00;;;;;;5057822;28;20035;-47
2022/06/18 09:49:05;;;;;;;5.82;4.63;;;27.00;93.70;;;;;;5058321;28;20033;-46
2022/06/18 09:51:42;;;;;;;9.10;4.63;;;26.90;94.10;;;;;;5056947;28;20082;-47
2022/06/18 09:54:10;;;;;;;10.55;5.07;;;26.80;94.00;;;;;;5064781;28;20127;-48
2022/06/18 09:56:46;;;;;;;10.85;4.43;;;26.70;94.60;;;;;;5057198;28;20578;-47
2022/06/18 09:59:27;;;;;;;7.10;4.75;;;26.80;94.60;;;;;;5060554;28;20017;-46
2022/06/18 10:01:53;;;;;;;7.68;4.20;;;26.70;94.00;;;;;;5057918;28;20422;-47
2022/06/18 10:07:27;;;;;;;4.93;3.38;;;26.70;94.80;;;;;;5051643;28;20524;-47
2022/06/18 10:09:58;;;;;;;4.63;3.05;;;26.70;94.50;;;;;;5059758;28;20109;-46
2022/06/18 10:12:33;;;;;;;4.95;2.38;;;26.70;94.30;;;;;;5060497;28;20029;-47
2022/06/18 10:15:00;;;;;;;7.90;2.50;;;26.80;93.80;;;;;;5060237;28;20091;-48
2022/06/18 10:17:38;;;;;;;4.10;2.45;;;26.70;93.50;;;;;;5063591;28;20035;-49
2022/06/18 10:20:19;;;;;;;4.28;2.38;;;26.50;93.00;;;;;;5060768;28;20028;-46
2022/06/18 10:23:15;;;;;;;13.10;3.00;;;26.50;93.70;;;;;;5065714;28;20028;-55
2022/06/18 10:26:07;;;;;;;6.05;2.63;;;26.40;93.90;;;;;;5060179;28;20013;-54
2022/06/18 10:28:35;;;;;;;4.78;2.67;;;26.40;94.80;;;;;;5059455;28;20077;-50
2022/06/18 10:31:17;;;;;;;2.42;2.00;;;26.40;94.50;;;;;;5062487;28;20028;-50
2022/06/18 10:34:10;;;;;;;5.35;2.30;;;26.50;95.40;;;;;;5062168;28;20051;-51
2022/06/18 10:37:04;;;;;;;6.65;2.45;;;26.50;94.80;;;;;;5057151;28;20025;-50
2022/06/18 10:39:58;;;;;;;4.03;2.53;;;26.50;94.20;;;;;;5058646;28;20027;-51
2022/06/18 10:43:08;;;;;;;4.40;2.60;;;26.60;94.60;;;;;;5056651;28;20033;-54
2022/06/18 10:45:41;;;;;;;8.40;3.25;;;26.50;95.60;;;;;;5055326;28;20379;-51
2022/06/18 10:48:25;;;;;;;8.13;3.00;;;26.50;95.10;;;;;;5061589;28;20028;-52
2022/06/18 10:50:53;;;;;;;3.55;2.00;;;26.40;95.40;;;;;;5063155;28;20023;-51
2022/06/18 10:53:23;;;;;;;3.20;1.38;;;26.40;94.40;;;;;;5054364;28;20069;-48
2022/06/18 10:56:14;;;;;;;2.08;1.80;;;26.40;94.90;;;;;;5062342;28;20031;-46
2022/06/18 10:59:01;;;;;;;4.43;2.10;;;26.50;94.80;;;;;;5060861;28;20021;-47
2022/06/18 11:01:31;;;;;;;7.63;1.85;;;26.20;94.00;;;;;;5057147;28;20360;-48
2022/06/18 11:04:00;;;;;;;5.70;1.45;;;26.20;94.40;;;;;;5067967;28;20069;-46
2022/06/18 11:06:27;;;;;;;3.13;1.27;;;26.20;94.40;;;;;;5059907;28;20100;-46
2022/06/18 11:08:58;;;;;;;7.28;2.05;;;26.10;94.70;;;;;;5060251;28;20111;-46
2022/06/18 11:11:27;;;;;;;3.40;2.13;;;26.10;94.90;;;;;;5063612;28;20558;-47
2022/06/18 11:13:53;;;;;;;3.80;1.70;;;26.00;94.50;;;;;;5060110;28;20024;-47
2022/06/18 11:16:24;;;;;;;4.50;1.85;;;26.00;95.30;;;;;;5066159;28;20402;-47
2022/06/18 11:18:56;;;;;;;3.60;1.65;;;26.20;95.90;;;;;;5056222;28;20017;-47
2022/06/18 11:21:37;;;;;;;4.10;2.10;;;26.10;95.40;;;;;;5065397;28;20738;-46
2022/06/18 11:24:26;;;;;;;4.40;1.95;;;26.10;95.00;;;;;;5059591;28;20049;-48
2022/06/18 11:26:56;;;;;;;3.85;1.60;;;26.10;95.50;;;;;;5058286;28;20108;-48
2022/06/18 11:29:41;;;;;;;2.95;1.50;;;26.20;95.60;;;;;;5062780;28;20504;-51
2022/06/18 11:32:17;;;;;;;2.17;0.90;;;26.20;95.20;;;;;;5061225;28;20021;-50
2022/06/18 11:34:45;;;;;;;2.25;1.20;;;26.20;95.40;;;;;;5062298;28;20244;-50
2022/06/18 11:37:22;;;;;;;3.88;1.30;;;26.10;95.50;;;;;;5062649;28;20025;-55
2022/06/18 11:40:15;;;;;;;2.03;1.13;;;26.20;96.00;;;;;;5063032;28;20036;-53
2022/06/18 11:42:48;;;;;;;2.60;0.90;;;26.10;95.60;;;;;;5054342;28;20044;-53
2022/06/18 11:45:41;;;;;;;3.80;0.90;;;25.90;96.30;;;;;;5049237;28;20013;-53
2022/06/18 11:48:15;;;;;;;1.52;0.90;;;25.90;96.40;;;;;;5062048;28;20087;-50
2022/06/18 11:50:47;;;;;;;1.67;0.95;;;25.70;96.20;;;;;;5062269;28;20040;-50
2022/06/18 11:53:19;;;;;;;1.30;0.90;;;25.70;96.80;;;;;;5059930;28;20089;-53
2022/06/18 11:55:51;;;;;;;1.70;0.65;;;25.70;97.20;;;;;;5062223;28;20033;-46
2022/06/18 11:58:40;;;;;;;3.10;0.65;;;25.90;97.70;;;;;;5060549;28;20022;-52
2022/06/18 12:01:39;;;;;;;0.80;0.63;;;26.10;96.60;;;;;;5059500;28;20639;-52
2022/06/18 12:04:21;;;;;;;1.80;1.30;;;26.20;95.80;;;;;;5066447;28;20021;-52
2022/06/18 12:07:15;;;;;;;1.17;0.70;;;26.20;95.70;;;;;;5057542;28;20091;-52
2022/06/18 12:09:42;;;;;;;4.05;0.80;;;26.20;95.50;;;;;;5052556;28;20020;-46
2022/06/18 12:12:27;;;;;;;1.85;0.60;;;26.10;94.70;;;;;;5060845;28;20487;-46
2022/06/18 12:14:52;;;;;;;1.30;0.70;;;25.90;94.60;;;;;;5060996;28;20112;-51
2022/06/18 12:17:18;;;;;;;0.95;0.38;;;26.00;94.60;;;;;;5062180;28;20255;-50
2022/06/18 12:19:56;;;;;;;0.85;0.77;;;25.80;94.20;;;;;;5061886;28;20498;-48
2022/06/18 12:22:37;;;;;;;1.80;0.70;;;25.80;94.10;;;;;;5061356;28;20482;-47
2022/06/18 12:25:17;;;;;;;3.20;0.52;;;25.90;94.00;;;;;;5059618;28;20024;-52
2022/06/18 12:27:54;;;;;;;1.33;0.60;;;25.90;94.20;;;;;;5063750;28;20406;-49
2022/06/18 12:30:28;;;;;;;0.55;0.55;;;25.90;94.30;;;;;;5054844;28;20075;-48
2022/06/18 12:33:17;;;;;;;2.27;0.60;;;25.90;93.40;;;;;;5057269;28;20037;-47
2022/06/18 12:36:05;;;;;;;0.70;0.50;;;26.00;93.10;;;;;;5047958;28;20056;-52
2022/06/18 12:38:48;;;;;;;1.38;0.50;;;25.90;92.30;;;;;;5051612;28;20025;-51
2022/06/18 12:41:57;;;;;;;0.75;0.55;;;25.90;94.10;;;;;;5047348;28;20030;-46
2022/06/18 12:44:39;;;;;;;0.90;0.50;;;25.80;94.10;;;;;;5026672;28;20025;-49
2022/06/18 12:47:48;;;;;;;1.73;0.73;;;25.70;94.10;;;;;;5063258;28;20106;-48
2022/06/18 12:50:52;;;;;;;1.05;0.40;;;25.80;94.90;;;;;;5059453;28;20032;-52
2022/06/18 12:53:21;;;;;;;3.10;1.40;;;25.90;93.00;;;;;;5049734;28;20036;-49
2022/06/18 12:56:17;;;;;;;1.08;0.70;;;26.00;92.80;;;;;;5060450;28;20107;-47
2022/06/18 12:59:01;;;;;;;1.25;0.95;;;26.10;93.40;;;;;;5058902;28;20031;-46
2022/06/18 13:01:44;;;;;;;1.50;1.05;;;26.00;94.50;;;;;;5054458;28;20514;-46
2022/06/18 13:04:26;;;;;;;5.57;0.77;;;26.30;94.20;;;;;;5065200;28;20430;-50
2022/06/18 13:06:58;;;;;;;1.95;1.00;;;26.50;93.00;;;;;;5057703;28;20395;-51
2022/06/18 13:09:43;;;;;;;2.33;0.60;;;26.60;93.60;;;;;;5061251;28;20025;-46
2022/06/18 13:12:30;;;;;;;1.35;0.98;;;26.60;92.80;;;;;;5058919;28;20075;-49
2022/06/18 13:15:04;;;;;;;1.77;0.68;;;26.60;93.80;;;;;;5059698;28;20119;-47
2022/06/18 13:17:47;;;;;;;2.40;0.60;;;26.60;93.10;;;;;;5060732;28;20100;-49
2022/06/18 13:20:25;;;;;;;1.58;0.73;;;26.40;92.60;;;;;;5060661;28;20020;-53
2022/06/18 13:22:51;;;;;;;3.00;0.85;;;26.50;92.70;;;;;;5060137;28;20099;-49
2022/06/18 13:28:10;;;;;;;0.50;0.50;;;26.20;92.60;;;;;;5064029;28;20089;-47